< < Back
Terminal Aerodrome Forecast


Current Version              Previous Versions:   1  2  3  4  5  6  7  8  9  

Terminal Aerodrome Forecast

459
FTUS44 KOHX 010522
TAFBNA
TAF
KBNA 010522Z 0106/0206 35004KT P6SM SKC
     FM011700 01011KT P6SM SCT060
     FM020100 03004KT P6SM SKC=

Latest METAR

303
SAUS70 KWBC 012000 RRH
MTRBNA
METAR KBNA 011953Z 03006KT 10SM SCT060 SCT095 33/18 A2999 RMK AO2 SLP147
T03330178 $


USA.gov is the U.S. government's official web portal to all federal, state and local government web resources and services.